sensor_id;sensor_type;location;lat;lon;timestamp;temperature;humidity
52725;DHT22;38621;52.830;6.914;2022-07-29T00:02:09;14.70;99.90
52725;DHT22;38621;52.830;6.914;2022-07-29T00:04:36;14.70;99.90
52725;DHT22;38621;52.830;6.914;2022-07-29T00:07:02;14.60;99.90
52725;DHT22;38621;52.830;6.914;2022-07-29T00:09:28;14.70;99.90
52725;DHT22;38621;52.830;6.914;2022-07-29T00:11:57;14.70;99.90
52725;DHT22;38621;52.830;6.914;2022-07-29T00:14:24;14.60;99.90
52725;DHT22;38621;52.830;6.914;2022-07-29T00:16:50;14.60;99.90
52725;DHT22;38621;52.830;6.914;2022-07-29T00:19:16;14.60;99.90
52725;DHT22;38621;52.830;6.914;2022-07-29T00:21:41;14.60;99.90
52725;DHT22;38621;52.830;6.914;2022-07-29T00:24:07;14.50;99.90
52725;DHT22;38621;52.830;6.914;2022-07-29T00:26:33;14.50;99.90
52725;DHT22;38621;52.830;6.914;2022-07-29T00:29:00;14.50;99.90
52725;DHT22;38621;52.830;6.914;2022-07-29T00:31:26;14.50;99.90
52725;DHT22;38621;52.830;6.914;2022-07-29T00:33:52;14.40;99.90
52725;DHT22;38621;52.830;6.914;2022-07-29T00:36:18;14.40;99.90
52725;DHT22;38621;52.830;6.914;2022-07-29T00:38:49;14.40;99.90
52725;DHT22;38621;52.830;6.914;2022-07-29T00:41:15;14.30;99.90
52725;DHT22;38621;52.830;6.914;2022-07-29T00:43:42;14.30;99.90
52725;DHT22;38621;52.830;6.914;2022-07-29T00:46:07;14.30;99.90
52725;DHT22;38621;52.830;6.914;2022-07-29T00:48:33;14.30;99.90
52725;DHT22;38621;52.830;6.914;2022-07-29T00:51:02;14.30;99.90
52725;DHT22;38621;52.830;6.914;2022-07-29T00:53:29;14.30;99.90
52725;DHT22;38621;52.830;6.914;2022-07-29T00:55:55;14.30;99.90
52725;DHT22;38621;52.830;6.914;2022-07-29T00:58:22;14.30;99.90
52725;DHT22;38621;52.830;6.914;2022-07-29T01:00:48;14.30;99.90
52725;DHT22;38621;52.830;6.914;2022-07-29T01:03:14;14.30;99.90
52725;DHT22;38621;52.830;6.914;2022-07-29T01:05:41;14.30;99.90
52725;DHT22;38621;52.830;6.914;2022-07-29T01:08:08;14.30;99.90
52725;DHT22;38621;52.830;6.914;2022-07-29T01:10:37;14.30;99.90
52725;DHT22;38621;52.830;6.914;2022-07-29T01:13:03;14.30;99.90
52725;DHT22;38621;52.830;6.914;2022-07-29T01:15:30;14.20;99.90
52725;DHT22;38621;52.830;6.914;2022-07-29T01:18:54;14.20;99.90
52725;DHT22;38621;52.830;6.914;2022-07-29T01:23:52;14.20;99.90
52725;DHT22;38621;52.830;6.914;2022-07-29T01:31:54;14.20;99.90
52725;DHT22;38621;52.830;6.914;2022-07-29T01:34:35;14.20;99.90
52725;DHT22;38621;52.830;6.914;2022-07-29T01:37:12;14.20;99.90
52725;DHT22;38621;52.830;6.914;2022-07-29T01:39:41;14.20;99.90
52725;DHT22;38621;52.830;6.914;2022-07-29T01:42:19;14.20;99.90
52725;DHT22;38621;52.830;6.914;2022-07-29T01:44:55;14.20;99.90
52725;DHT22;38621;52.830;6.914;2022-07-29T01:47:26;14.10;99.90
52725;DHT22;38621;52.830;6.914;2022-07-29T01:49:58;14.20;99.90
52725;DHT22;38621;52.830;6.914;2022-07-29T01:52:36;14.10;99.90
52725;DHT22;38621;52.830;6.914;2022-07-29T01:55:09;14.10;99.90
52725;DHT22;38621;52.830;6.914;2022-07-29T01:57:39;14.10;99.90
52725;DHT22;38621;52.830;6.914;2022-07-29T02:00:06;14.10;99.90
52725;DHT22;38621;52.830;6.914;2022-07-29T02:02:33;14.10;99.90
52725;DHT22;38621;52.830;6.914;2022-07-29T02:05:01;14.10;99.90
52725;DHT22;38621;52.830;6.914;2022-07-29T02:07:29;14.10;99.90
52725;DHT22;38621;52.830;6.914;2022-07-29T02:09:57;14.10;99.90
52725;DHT22;38621;52.830;6.914;2022-07-29T02:12:24;14.10;99.90
52725;DHT22;38621;52.830;6.914;2022-07-29T02:14:52;14.10;99.90
52725;DHT22;38621;52.830;6.914;2022-07-29T02:17:31;14.10;99.90
52725;DHT22;38621;52.830;6.914;2022-07-29T02:20:00;14.10;99.90
52725;DHT22;38621;52.830;6.914;2022-07-29T02:22:29;14.10;99.90
52725;DHT22;38621;52.830;6.914;2022-07-29T02:24:56;14.10;99.90
52725;DHT22;38621;52.830;6.914;2022-07-29T02:27:23;14.00;99.90
52725;DHT22;38621;52.830;6.914;2022-07-29T02:29:51;14.00;99.90
52725;DHT22;38621;52.830;6.914;2022-07-29T02:32:19;14.00;99.90
52725;DHT22;38621;52.830;6.914;2022-07-29T02:34:47;14.00;99.90
52725;DHT22;38621;52.830;6.914;2022-07-29T02:37:16;14.10;99.90
52725;DHT22;38621;52.830;6.914;2022-07-29T02:39:43;14.00;99.90
52725;DHT22;38621;52.830;6.914;2022-07-29T02:42:12;14.00;99.90
52725;DHT22;38621;52.830;6.914;2022-07-29T02:44:39;14.10;99.90
52725;DHT22;38621;52.830;6.914;2022-07-29T02:47:21;14.10;99.90
52725;DHT22;38621;52.830;6.914;2022-07-29T02:50:41;14.10;99.90
52725;DHT22;38621;52.830;6.914;2022-07-29T02:53:01;14.10;99.90
52725;DHT22;38621;52.830;6.914;2022-07-29T02:55:42;14.00;99.90
52725;DHT22;38621;52.830;6.914;2022-07-29T03:01:02;14.00;99.90
52725;DHT22;38621;52.830;6.914;2022-07-29T03:03:37;14.00;99.90
52725;DHT22;38621;52.830;6.914;2022-07-29T03:06:05;14.00;99.90
52725;DHT22;38621;52.830;6.914;2022-07-29T03:08:33;14.00;99.90
52725;DHT22;38621;52.830;6.914;2022-07-29T03:11:00;14.00;99.90
52725;DHT22;38621;52.830;6.914;2022-07-29T03:13:27;14.00;99.90
52725;DHT22;38621;52.830;6.914;2022-07-29T03:15:55;14.00;99.90
52725;DHT22;38621;52.830;6.914;2022-07-29T03:18:22;14.00;99.90
52725;DHT22;38621;52.830;6.914;2022-07-29T03:20:47;13.90;99.90
52725;DHT22;38621;52.830;6.914;2022-07-29T03:23:22;14.00;99.90
52725;DHT22;38621;52.830;6.914;2022-07-29T03:25:52;13.90;99.90
52725;DHT22;38621;52.830;6.914;2022-07-29T03:28:19;13.90;99.90
52725;DHT22;38621;52.830;6.914;2022-07-29T03:30:45;13.90;99.90
52725;DHT22;38621;52.830;6.914;2022-07-29T03:33:11;13.90;99.90
52725;DHT22;38621;52.830;6.914;2022-07-29T03:35:36;13.90;99.90
52725;DHT22;38621;52.830;6.914;2022-07-29T03:38:02;13.90;99.90
52725;DHT22;38621;52.830;6.914;2022-07-29T03:40:35;13.90;99.90
52725;DHT22;38621;52.830;6.914;2022-07-29T03:43:04;13.90;99.90
52725;DHT22;38621;52.830;6.914;2022-07-29T03:45:32;13.90;99.90
52725;DHT22;38621;52.830;6.914;2022-07-29T03:48:06;13.90;99.90
52725;DHT22;38621;52.830;6.914;2022-07-29T03:50:33;13.90;99.90
52725;DHT22;38621;52.830;6.914;2022-07-29T03:53:00;13.90;99.90
52725;DHT22;38621;52.830;6.914;2022-07-29T03:55:26;13.90;99.90
52725;DHT22;38621;52.830;6.914;2022-07-29T03:57:55;13.90;99.90
52725;DHT22;38621;52.830;6.914;2022-07-29T04:00:24;13.90;99.90
52725;DHT22;38621;52.830;6.914;2022-07-29T04:02:50;13.90;99.90
52725;DHT22;38621;52.830;6.914;2022-07-29T04:05:17;13.90;99.90
52725;DHT22;38621;52.830;6.914;2022-07-29T04:07:47;13.90;99.90
52725;DHT22;38621;52.830;6.914;2022-07-29T04:10:13;13.90;99.90
52725;DHT22;38621;52.830;6.914;2022-07-29T04:12:41;13.90;99.90
52725;DHT22;38621;52.830;6.914;2022-07-29T04:15:07;13.90;99.90
52725;DHT22;38621;52.830;6.914;2022-07-29T04:17:33;13.90;99.90
52725;DHT22;38621;52.830;6.914;2022-07-29T04:19:58;13.90;99.90
52725;DHT22;38621;52.830;6.914;2022-07-29T04:22:24;13.90;99.90
52725;DHT22;38621;52.830;6.914;2022-07-29T04:24:50;13.90;99.90
52725;DHT22;38621;52.830;6.914;2022-07-29T04:27:15;13.90;99.90
52725;DHT22;38621;52.830;6.914;2022-07-29T04:29:41;13.90;99.90
52725;DHT22;38621;52.830;6.914;2022-07-29T04:32:07;13.90;99.90
52725;DHT22;38621;52.830;6.914;2022-07-29T04:34:33;13.90;99.90
52725;DHT22;38621;52.830;6.914;2022-07-29T04:36:58;13.90;99.90
52725;DHT22;38621;52.830;6.914;2022-07-29T04:39:25;14.00;99.90
52725;DHT22;38621;52.830;6.914;2022-07-29T04:41:51;14.00;99.90
52725;DHT22;38621;52.830;6.914;2022-07-29T04:44:17;14.00;99.90
52725;DHT22;38621;52.830;6.914;2022-07-29T04:46:43;14.00;99.90
52725;DHT22;38621;52.830;6.914;2022-07-29T04:49:09;14.00;99.90
52725;DHT22;38621;52.830;6.914;2022-07-29T04:51:34;14.00;99.90
52725;DHT22;38621;52.830;6.914;2022-07-29T04:54:00;14.10;99.90
52725;DHT22;38621;52.830;6.914;2022-07-29T04:56:26;14.10;99.90
52725;DHT22;38621;52.830;6.914;2022-07-29T04:58:52;14.10;99.90
52725;DHT22;38621;52.830;6.914;2022-07-29T05:01:19;14.20;99.90
52725;DHT22;38621;52.830;6.914;2022-07-29T05:03:45;14.20;99.90
52725;DHT22;38621;52.830;6.914;2022-07-29T05:06:10;14.20;99.90
52725;DHT22;38621;52.830;6.914;2022-07-29T05:08:36;14.20;99.90
52725;DHT22;38621;52.830;6.914;2022-07-29T05:11:02;14.30;99.90
52725;DHT22;38621;52.830;6.914;2022-07-29T05:13:29;14.30;99.90
52725;DHT22;38621;52.830;6.914;2022-07-29T05:15:55;14.40;99.90
52725;DHT22;38621;52.830;6.914;2022-07-29T05:18:21;14.40;99.90
52725;DHT22;38621;52.830;6.914;2022-07-29T05:20:46;14.50;99.90
52725;DHT22;38621;52.830;6.914;2022-07-29T05:23:12;14.50;99.90
52725;DHT22;38621;52.830;6.914;2022-07-29T05:25:38;14.60;99.90
52725;DHT22;38621;52.830;6.914;2022-07-29T05:28:04;14.60;99.90
52725;DHT22;38621;52.830;6.914;2022-07-29T05:30:30;14.70;99.90
52725;DHT22;38621;52.830;6.914;2022-07-29T05:32:55;14.80;99.90
52725;DHT22;38621;52.830;6.914;2022-07-29T05:35:21;14.80;99.90
52725;DHT22;38621;52.830;6.914;2022-07-29T05:37:47;14.80;99.90
52725;DHT22;38621;52.830;6.914;2022-07-29T05:40:12;14.90;99.90
52725;DHT22;38621;52.830;6.914;2022-07-29T05:42:38;15.00;99.90
52725;DHT22;38621;52.830;6.914;2022-07-29T05:45:04;15.00;99.90
52725;DHT22;38621;52.830;6.914;2022-07-29T05:47:30;15.00;99.90
52725;DHT22;38621;52.830;6.914;2022-07-29T05:49:56;15.00;99.90
52725;DHT22;38621;52.830;6.914;2022-07-29T05:52:22;15.10;99.90
52725;DHT22;38621;52.830;6.914;2022-07-29T05:54:48;15.10;99.90
52725;DHT22;38621;52.830;6.914;2022-07-29T05:57:24;15.20;99.90
52725;DHT22;38621;52.830;6.914;2022-07-29T05:59:50;15.10;99.90
52725;DHT22;38621;52.830;6.914;2022-07-29T06:02:17;15.10;99.90
52725;DHT22;38621;52.830;6.914;2022-07-29T06:04:43;15.20;99.90
52725;DHT22;38621;52.830;6.914;2022-07-29T06:07:09;15.20;99.90
52725;DHT22;38621;52.830;6.914;2022-07-29T06:09:35;15.20;99.90
52725;DHT22;38621;52.830;6.914;2022-07-29T06:12:01;15.20;99.90
52725;DHT22;38621;52.830;6.914;2022-07-29T06:14:26;15.20;99.90
52725;DHT22;38621;52.830;6.914;2022-07-29T06:16:54;15.20;99.90
52725;DHT22;38621;52.830;6.914;2022-07-29T06:19:19;15.30;99.90
52725;DHT22;38621;52.830;6.914;2022-07-29T06:21:46;15.30;99.90
52725;DHT22;38621;52.830;6.914;2022-07-29T06:24:13;15.40;99.90
52725;DHT22;38621;52.830;6.914;2022-07-29T06:26:39;15.50;99.90
52725;DHT22;38621;52.830;6.914;2022-07-29T06:29:07;15.50;99.90
52725;DHT22;38621;52.830;6.914;2022-07-29T06:31:33;15.60;99.90
52725;DHT22;38621;52.830;6.914;2022-07-29T06:33:59;15.60;99.90
52725;DHT22;38621;52.830;6.914;2022-07-29T06:36:24;15.70;99.90
52725;DHT22;38621;52.830;6.914;2022-07-29T06:38:50;15.70;99.90
52725;DHT22;38621;52.830;6.914;2022-07-29T06:41:16;15.80;99.90
52725;DHT22;38621;52.830;6.914;2022-07-29T06:43:43;15.80;99.90
52725;DHT22;38621;52.830;6.914;2022-07-29T06:46:12;15.90;99.90
52725;DHT22;38621;52.830;6.914;2022-07-29T06:48:39;15.90;99.90
52725;DHT22;38621;52.830;6.914;2022-07-29T06:51:05;16.00;99.90
52725;DHT22;38621;52.830;6.914;2022-07-29T06:53:32;16.00;99.90
52725;DHT22;38621;52.830;6.914;2022-07-29T06:55:59;16.10;99.90
52725;DHT22;38621;52.830;6.914;2022-07-29T06:58:26;16.10;99.90
52725;DHT22;38621;52.830;6.914;2022-07-29T07:00:52;16.20;99.90
52725;DHT22;38621;52.830;6.914;2022-07-29T07:03:18;16.20;99.90
52725;DHT22;38621;52.830;6.914;2022-07-29T07:05:45;16.30;99.90
52725;DHT22;38621;52.830;6.914;2022-07-29T07:08:12;16.40;99.90
52725;DHT22;38621;52.830;6.914;2022-07-29T07:10:38;16.50;99.90
52725;DHT22;38621;52.830;6.914;2022-07-29T07:13:05;16.50;99.90
52725;DHT22;38621;52.830;6.914;2022-07-29T07:15:31;16.50;99.90
52725;DHT22;38621;52.830;6.914;2022-07-29T07:17:57;16.60;99.90
52725;DHT22;38621;52.830;6.914;2022-07-29T07:20:24;16.70;99.90
52725;DHT22;38621;52.830;6.914;2022-07-29T07:22:50;16.70;99.90
52725;DHT22;38621;52.830;6.914;2022-07-29T07:25:15;16.80;99.90
52725;DHT22;38621;52.830;6.914;2022-07-29T07:27:46;16.90;99.90
52725;DHT22;38621;52.830;6.914;2022-07-29T07:30:12;16.90;99.90
52725;DHT22;38621;52.830;6.914;2022-07-29T07:32:38;16.90;99.90
52725;DHT22;38621;52.830;6.914;2022-07-29T07:35:05;16.90;99.90
52725;DHT22;38621;52.830;6.914;2022-07-29T07:37:32;16.90;99.90
52725;DHT22;38621;52.830;6.914;2022-07-29T07:39:57;17.00;99.90
52725;DHT22;38621;52.830;6.914;2022-07-29T07:42:24;17.10;99.90
52725;DHT22;38621;52.830;6.914;2022-07-29T07:44:49;17.10;99.90
52725;DHT22;38621;52.830;6.914;2022-07-29T07:47:15;17.20;99.90
52725;DHT22;38621;52.830;6.914;2022-07-29T07:49:54;17.30;99.90
52725;DHT22;38621;52.830;6.914;2022-07-29T07:52:21;17.30;99.90
52725;DHT22;38621;52.830;6.914;2022-07-29T07:54:48;17.40;99.90
52725;DHT22;38621;52.830;6.914;2022-07-29T07:57:14;17.50;99.90
52725;DHT22;38621;52.830;6.914;2022-07-29T07:59:41;17.60;99.90
52725;DHT22;38621;52.830;6.914;2022-07-29T08:02:08;17.70;99.90
52725;DHT22;38621;52.830;6.914;2022-07-29T08:04:35;17.70;99.90
52725;DHT22;38621;52.830;6.914;2022-07-29T08:07:01;17.80;99.90
52725;DHT22;38621;52.830;6.914;2022-07-29T08:09:28;17.80;99.90
52725;DHT22;38621;52.830;6.914;2022-07-29T08:11:54;17.90;99.90
52725;DHT22;38621;52.830;6.914;2022-07-29T08:14:20;17.90;99.90
52725;DHT22;38621;52.830;6.914;2022-07-29T08:16:46;17.90;99.90
52725;DHT22;38621;52.830;6.914;2022-07-29T08:19:12;17.90;99.90
52725;DHT22;38621;52.830;6.914;2022-07-29T08:21:38;18.00;99.90
52725;DHT22;38621;52.830;6.914;2022-07-29T08:24:04;18.10;99.90
52725;DHT22;38621;52.830;6.914;2022-07-29T08:26:49;18.10;99.90
52725;DHT22;38621;52.830;6.914;2022-07-29T08:29:14;18.10;99.90
52725;DHT22;38621;52.830;6.914;2022-07-29T08:31:40;18.10;99.90
52725;DHT22;38621;52.830;6.914;2022-07-29T08:34:06;18.20;99.90
52725;DHT22;38621;52.830;6.914;2022-07-29T08:36:33;18.20;99.90
52725;DHT22;38621;52.830;6.914;2022-07-29T08:38:59;18.20;99.90
52725;DHT22;38621;52.830;6.914;2022-07-29T08:41:26;18.20;99.90
52725;DHT22;38621;52.830;6.914;2022-07-29T08:43:52;18.20;99.90
52725;DHT22;38621;52.830;6.914;2022-07-29T08:46:18;18.30;99.90
52725;DHT22;38621;52.830;6.914;2022-07-29T08:48:45;18.30;99.90
52725;DHT22;38621;52.830;6.914;2022-07-29T08:51:20;18.40;99.90
52725;DHT22;38621;52.830;6.914;2022-07-29T08:53:50;18.50;99.90
52725;DHT22;38621;52.830;6.914;2022-07-29T08:56:18;18.60;99.90
52725;DHT22;38621;52.830;6.914;2022-07-29T08:58:45;18.60;99.90
52725;DHT22;38621;52.830;6.914;2022-07-29T09:01:14;18.70;99.90
52725;DHT22;38621;52.830;6.914;2022-07-29T09:03:43;18.80;99.90
52725;DHT22;38621;52.830;6.914;2022-07-29T09:06:13;18.90;99.90
52725;DHT22;38621;52.830;6.914;2022-07-29T09:08:39;18.90;99.90
52725;DHT22;38621;52.830;6.914;2022-07-29T09:11:06;19.00;99.90
52725;DHT22;38621;52.830;6.914;2022-07-29T09:13:33;19.00;99.90
52725;DHT22;38621;52.830;6.914;2022-07-29T09:15:59;19.10;99.90
52725;DHT22;38621;52.830;6.914;2022-07-29T09:18:39;19.20;99.90
52725;DHT22;38621;52.830;6.914;2022-07-29T09:21:10;19.20;99.90
52725;DHT22;38621;52.830;6.914;2022-07-29T09:26:34;19.40;99.90
52725;DHT22;38621;52.830;6.914;2022-07-29T09:29:01;19.50;99.90
52725;DHT22;38621;52.830;6.914;2022-07-29T09:31:35;19.50;99.90
52725;DHT22;38621;52.830;6.914;2022-07-29T09:34:01;19.60;99.90
52725;DHT22;38621;52.830;6.914;2022-07-29T09:36:27;19.60;99.90
52725;DHT22;38621;52.830;6.914;2022-07-29T09:39:02;19.60;99.90
52725;DHT22;38621;52.830;6.914;2022-07-29T09:41:29;19.60;99.90
52725;DHT22;38621;52.830;6.914;2022-07-29T09:43:59;19.60;99.90
52725;DHT22;38621;52.830;6.914;2022-07-29T09:46:25;19.60;99.90
52725;DHT22;38621;52.830;6.914;2022-07-29T09:49:11;19.50;99.90
52725;DHT22;38621;52.830;6.914;2022-07-29T09:51:38;19.50;99.90
52725;DHT22;38621;52.830;6.914;2022-07-29T09:54:26;19.50;99.90
52725;DHT22;38621;52.830;6.914;2022-07-29T09:56:54;19.60;99.90
52725;DHT22;38621;52.830;6.914;2022-07-29T09:59:20;19.60;99.90
52725;DHT22;38621;52.830;6.914;2022-07-29T10:01:48;19.60;99.90
52725;DHT22;38621;52.830;6.914;2022-07-29T10:04:17;19.60;99.90
52725;DHT22;38621;52.830;6.914;2022-07-29T10:07:00;19.60;99.90
52725;DHT22;38621;52.830;6.914;2022-07-29T10:09:26;19.60;99.90
52725;DHT22;38621;52.830;6.914;2022-07-29T10:12:10;19.60;99.90
52725;DHT22;38621;52.830;6.914;2022-07-29T10:14:37;19.60;99.90
52725;DHT22;38621;52.830;6.914;2022-07-29T10:17:04;19.60;99.90
52725;DHT22;38621;52.830;6.914;2022-07-29T10:19:32;19.60;99.90
52725;DHT22;38621;52.830;6.914;2022-07-29T10:21:59;19.60;99.90
52725;DHT22;38621;52.830;6.914;2022-07-29T10:24:26;19.60;99.90
52725;DHT22;38621;52.830;6.914;2022-07-29T10:26:58;19.50;99.90
52725;DHT22;38621;52.830;6.914;2022-07-29T10:29:25;19.50;99.90
52725;DHT22;38621;52.830;6.914;2022-07-29T10:42:25;19.30;99.90
52725;DHT22;38621;52.830;6.914;2022-07-29T10:44:53;19.20;99.90
52725;DHT22;38621;52.830;6.914;2022-07-29T10:47:26;19.20;99.90
52725;DHT22;38621;52.830;6.914;2022-07-29T10:50:03;19.10;99.90
52725;DHT22;38621;52.830;6.914;2022-07-29T10:55:36;19.10;99.90
52725;DHT22;38621;52.830;6.914;2022-07-29T10:58:23;19.00;99.90
52725;DHT22;38621;52.830;6.914;2022-07-29T11:00:53;19.00;99.90
52725;DHT22;38621;52.830;6.914;2022-07-29T11:03:44;19.00;99.90
52725;DHT22;38621;52.830;6.914;2022-07-29T11:06:11;19.00;99.90
52725;DHT22;38621;52.830;6.914;2022-07-29T11:08:37;19.00;99.90
52725;DHT22;38621;52.830;6.914;2022-07-29T11:11:32;19.00;99.90
52725;DHT22;38621;52.830;6.914;2022-07-29T11:13:58;19.00;99.90
52725;DHT22;38621;52.830;6.914;2022-07-29T11:16:24;19.00;99.90
52725;DHT22;38621;52.830;6.914;2022-07-29T11:21:41;19.00;99.90
52725;DHT22;38621;52.830;6.914;2022-07-29T11:26:39;19.10;99.90
52725;DHT22;38621;52.830;6.914;2022-07-29T11:31:44;19.10;99.90
52725;DHT22;38621;52.830;6.914;2022-07-29T11:34:16;19.10;99.90
52725;DHT22;38621;52.830;6.914;2022-07-29T11:39:42;19.30;99.90
52725;DHT22;38621;52.830;6.914;2022-07-29T11:45:10;19.40;99.90
52725;DHT22;38621;52.830;6.914;2022-07-29T11:50:13;19.60;99.90
52725;DHT22;38621;52.830;6.914;2022-07-29T11:52:44;19.60;99.90
52725;DHT22;38621;52.830;6.914;2022-07-29T11:55:19;19.70;99.90
52725;DHT22;38621;52.830;6.914;2022-07-29T11:58:00;19.70;99.90
52725;DHT22;38621;52.830;6.914;2022-07-29T12:00:27;19.80;99.90
52725;DHT22;38621;52.830;6.914;2022-07-29T12:02:54;19.90;99.90
52725;DHT22;38621;52.830;6.914;2022-07-29T12:05:20;19.90;99.90
52725;DHT22;38621;52.830;6.914;2022-07-29T12:07:47;20.00;99.90
52725;DHT22;38621;52.830;6.914;2022-07-29T12:10:14;20.10;99.90
52725;DHT22;38621;52.830;6.914;2022-07-29T12:12:39;20.10;99.90
52725;DHT22;38621;52.830;6.914;2022-07-29T12:15:16;20.20;99.90
52725;DHT22;38621;52.830;6.914;2022-07-29T12:17:43;20.20;99.90
52725;DHT22;38621;52.830;6.914;2022-07-29T12:20:09;20.30;99.90
52725;DHT22;38621;52.830;6.914;2022-07-29T12:22:40;20.40;99.90
52725;DHT22;38621;52.830;6.914;2022-07-29T12:25:10;20.40;99.90
52725;DHT22;38621;52.830;6.914;2022-07-29T12:27:38;20.50;99.90
52725;DHT22;38621;52.830;6.914;2022-07-29T12:30:08;20.50;99.90
52725;DHT22;38621;52.830;6.914;2022-07-29T12:32:36;20.60;99.90
52725;DHT22;38621;52.830;6.914;2022-07-29T12:35:04;20.60;99.90
52725;DHT22;38621;52.830;6.914;2022-07-29T12:37:33;20.60;99.90
52725;DHT22;38621;52.830;6.914;2022-07-29T12:39:59;20.70;99.90
52725;DHT22;38621;52.830;6.914;2022-07-29T12:42:25;20.70;99.90
52725;DHT22;38621;52.830;6.914;2022-07-29T12:44:51;20.70;99.90
52725;DHT22;38621;52.830;6.914;2022-07-29T12:47:18;20.70;99.90
52725;DHT22;38621;52.830;6.914;2022-07-29T12:49:44;20.70;99.90
52725;DHT22;38621;52.830;6.914;2022-07-29T12:52:28;20.70;99.90
52725;DHT22;38621;52.830;6.914;2022-07-29T12:54:54;20.80;99.90
52725;DHT22;38621;52.830;6.914;2022-07-29T12:57:20;20.80;99.90
52725;DHT22;38621;52.830;6.914;2022-07-29T13:00:09;20.80;99.90
52725;DHT22;38621;52.830;6.914;2022-07-29T13:02:40;20.90;99.90
52725;DHT22;38621;52.830;6.914;2022-07-29T13:05:07;20.90;99.90
52725;DHT22;38621;52.830;6.914;2022-07-29T13:07:37;21.00;99.90
52725;DHT22;38621;52.830;6.914;2022-07-29T13:10:16;21.00;99.90
52725;DHT22;38621;52.830;6.914;2022-07-29T13:15:28;21.10;99.90
52725;DHT22;38621;52.830;6.914;2022-07-29T13:17:53;21.20;99.90
52725;DHT22;38621;52.830;6.914;2022-07-29T13:20:24;21.30;99.90
52725;DHT22;38621;52.830;6.914;2022-07-29T13:22:50;21.40;99.90
52725;DHT22;38621;52.830;6.914;2022-07-29T13:25:25;21.60;99.90
52725;DHT22;38621;52.830;6.914;2022-07-29T13:27:51;21.60;99.90
52725;DHT22;38621;52.830;6.914;2022-07-29T13:30:16;21.80;99.90
52725;DHT22;38621;52.830;6.914;2022-07-29T13:32:42;21.80;99.90
52725;DHT22;38621;52.830;6.914;2022-07-29T13:35:08;21.90;99.90
52725;DHT22;38621;52.830;6.914;2022-07-29T13:37:36;21.90;99.90
52725;DHT22;38621;52.830;6.914;2022-07-29T13:40:05;21.90;99.90
52725;DHT22;38621;52.830;6.914;2022-07-29T13:42:32;21.90;99.90
52725;DHT22;38621;52.830;6.914;2022-07-29T13:44:59;21.90;99.90
52725;DHT22;38621;52.830;6.914;2022-07-29T13:47:24;22.00;99.90
52725;DHT22;38621;52.830;6.914;2022-07-29T13:49:50;22.10;99.90
52725;DHT22;38621;52.830;6.914;2022-07-29T13:52:16;22.10;99.90
52725;DHT22;38621;52.830;6.914;2022-07-29T13:54:42;22.20;99.90
52725;DHT22;38621;52.830;6.914;2022-07-29T13:57:09;22.30;99.90
52725;DHT22;38621;52.830;6.914;2022-07-29T13:59:39;22.30;99.90
52725;DHT22;38621;52.830;6.914;2022-07-29T14:02:05;22.30;99.90
52725;DHT22;38621;52.830;6.914;2022-07-29T14:04:32;22.30;99.90
52725;DHT22;38621;52.830;6.914;2022-07-29T14:06:57;22.30;99.90
52725;DHT22;38621;52.830;6.914;2022-07-29T14:09:23;22.30;99.90
52725;DHT22;38621;52.830;6.914;2022-07-29T14:11:49;22.30;99.90
52725;DHT22;38621;52.830;6.914;2022-07-29T14:14:16;22.40;99.90
52725;DHT22;38621;52.830;6.914;2022-07-29T14:16:42;22.40;99.90
52725;DHT22;38621;52.830;6.914;2022-07-29T14:19:08;22.40;99.90
52725;DHT22;38621;52.830;6.914;2022-07-29T14:21:34;22.40;99.90
52725;DHT22;38621;52.830;6.914;2022-07-29T14:24:00;22.50;99.90
52725;DHT22;38621;52.830;6.914;2022-07-29T14:26:26;22.60;99.90
52725;DHT22;38621;52.830;6.914;2022-07-29T14:28:51;22.60;99.90
52725;DHT22;38621;52.830;6.914;2022-07-29T14:31:17;22.70;99.90
52725;DHT22;38621;52.830;6.914;2022-07-29T14:33:43;22.80;99.90
52725;DHT22;38621;52.830;6.914;2022-07-29T14:36:09;22.90;99.90
52725;DHT22;38621;52.830;6.914;2022-07-29T14:38:35;22.90;99.90
52725;DHT22;38621;52.830;6.914;2022-07-29T14:41:01;22.90;99.90
52725;DHT22;38621;52.830;6.914;2022-07-29T14:43:27;22.90;99.90
52725;DHT22;38621;52.830;6.914;2022-07-29T14:45:52;22.80;99.90
52725;DHT22;38621;52.830;6.914;2022-07-29T14:48:18;22.70;99.90
52725;DHT22;38621;52.830;6.914;2022-07-29T14:50:44;22.60;99.90
52725;DHT22;38621;52.830;6.914;2022-07-29T14:53:10;22.60;99.90
52725;DHT22;38621;52.830;6.914;2022-07-29T14:55:37;22.50;99.90
52725;DHT22;38621;52.830;6.914;2022-07-29T14:58:03;22.40;99.90
52725;DHT22;38621;52.830;6.914;2022-07-29T15:00:29;22.40;99.90
52725;DHT22;38621;52.830;6.914;2022-07-29T15:02:58;22.40;99.90
52725;DHT22;38621;52.830;6.914;2022-07-29T15:05:24;22.30;99.90
52725;DHT22;38621;52.830;6.914;2022-07-29T15:07:49;22.30;99.90
52725;DHT22;38621;52.830;6.914;2022-07-29T15:10:15;22.30;99.90
52725;DHT22;38621;52.830;6.914;2022-07-29T15:12:40;22.40;99.90
52725;DHT22;38621;52.830;6.914;2022-07-29T15:15:06;22.60;99.90
52725;DHT22;38621;52.830;6.914;2022-07-29T15:17:32;22.70;99.90
52725;DHT22;38621;52.830;6.914;2022-07-29T15:19:58;23.00;99.90
52725;DHT22;38621;52.830;6.914;2022-07-29T15:22:24;23.20;99.90
52725;DHT22;38621;52.830;6.914;2022-07-29T15:24:50;23.40;99.90
52725;DHT22;38621;52.830;6.914;2022-07-29T15:27:16;23.60;99.90
52725;DHT22;38621;52.830;6.914;2022-07-29T15:29:42;23.70;99.90
52725;DHT22;38621;52.830;6.914;2022-07-29T15:32:09;23.70;99.90
52725;DHT22;38621;52.830;6.914;2022-07-29T15:34:36;23.80;99.90
52725;DHT22;38621;52.830;6.914;2022-07-29T15:37:02;23.90;99.90
52725;DHT22;38621;52.830;6.914;2022-07-29T15:39:28;23.90;99.90
52725;DHT22;38621;52.830;6.914;2022-07-29T15:41:53;24.00;99.90
52725;DHT22;38621;52.830;6.914;2022-07-29T15:44:19;24.00;99.90
52725;DHT22;38621;52.830;6.914;2022-07-29T15:46:45;23.90;99.90
52725;DHT22;38621;52.830;6.914;2022-07-29T15:49:40;23.90;99.90
52725;DHT22;38621;52.830;6.914;2022-07-29T15:52:08;23.80;99.90
52725;DHT22;38621;52.830;6.914;2022-07-29T15:54:39;23.90;99.90
52725;DHT22;38621;52.830;6.914;2022-07-29T15:57:06;24.00;99.90
52725;DHT22;38621;52.830;6.914;2022-07-29T15:59:33;24.30;99.90
52725;DHT22;38621;52.830;6.914;2022-07-29T16:01:59;24.60;99.90
52725;DHT22;38621;52.830;6.914;2022-07-29T16:04:26;25.00;99.90
52725;DHT22;38621;52.830;6.914;2022-07-29T16:06:51;25.40;99.90
52725;DHT22;38621;52.830;6.914;2022-07-29T16:09:18;25.90;99.90
52725;DHT22;38621;52.830;6.914;2022-07-29T16:11:45;26.10;99.90
52725;DHT22;38621;52.830;6.914;2022-07-29T16:14:12;26.10;99.90
52725;DHT22;38621;52.830;6.914;2022-07-29T16:16:38;26.20;99.90
52725;DHT22;38621;52.830;6.914;2022-07-29T16:19:04;26.50;99.90
52725;DHT22;38621;52.830;6.914;2022-07-29T16:21:31;27.30;99.90
52725;DHT22;38621;52.830;6.914;2022-07-29T16:23:58;28.30;99.90